sensor_id;sensor_type;location;lat;lon;timestamp;P1;durP1;ratioP1;P2;durP2;ratioP2
6149;SDS011;3106;42.670;23.318;2023-07-13T03:32:08;14.47;;;9.80;;
6149;SDS011;3106;42.670;23.318;2023-07-13T03:34:36;14.27;;;9.87;;
6149;SDS011;3106;42.670;23.318;2023-07-13T03:37:03;21.50;;;9.20;;
6149;SDS011;3106;42.670;23.318;2023-07-13T03:39:30;27.23;;;10.70;;
6149;SDS011;3106;42.670;23.318;2023-07-13T03:41:57;14.73;;;10.50;;
6149;SDS011;3106;42.670;23.318;2023-07-13T03:44:24;16.63;;;10.00;;
6149;SDS011;3106;42.670;23.318;2023-07-13T03:46:50;14.47;;;9.30;;
6149;SDS011;3106;42.670;23.318;2023-07-13T03:49:18;18.10;;;8.90;;
6149;SDS011;3106;42.670;23.318;2023-07-13T03:51:45;13.93;;;10.03;;
6149;SDS011;3106;42.670;23.318;2023-07-13T03:54:20;17.30;;;10.00;;
6149;SDS011;3106;42.670;23.318;2023-07-13T03:56:47;11.23;;;9.07;;
6149;SDS011;3106;42.670;23.318;2023-07-13T03:59:14;17.20;;;10.03;;
6149;SDS011;3106;42.670;23.318;2023-07-13T04:01:43;15.40;;;8.80;;
6149;SDS011;3106;42.670;23.318;2023-07-13T04:04:24;14.80;;;10.37;;
6149;SDS011;3106;42.670;23.318;2023-07-13T04:06:56;15.40;;;10.00;;
6149;SDS011;3106;42.670;23.318;2023-07-13T04:09:24;22.90;;;10.40;;
6149;SDS011;3106;42.670;23.318;2023-07-13T04:11:55;21.23;;;11.97;;
6149;SDS011;3106;42.670;23.318;2023-07-13T04:14:22;16.93;;;10.47;;
6149;SDS011;3106;42.670;23.318;2023-07-13T04:16:49;22.10;;;11.83;;
6149;SDS011;3106;42.670;23.318;2023-07-13T04:19:16;20.93;;;11.57;;
6149;SDS011;3106;42.670;23.318;2023-07-13T04:21:47;20.93;;;11.40;;
6149;SDS011;3106;42.670;23.318;2023-07-13T04:24:14;16.20;;;11.60;;
6149;SDS011;3106;42.670;23.318;2023-07-13T04:26:41;20.10;;;11.90;;
6149;SDS011;3106;42.670;23.318;2023-07-13T04:29:07;16.60;;;11.47;;
6149;SDS011;3106;42.670;23.318;2023-07-13T04:31:34;22.70;;;12.27;;
6149;SDS011;3106;42.670;23.318;2023-07-13T04:34:01;24.67;;;13.93;;
6149;SDS011;3106;42.670;23.318;2023-07-13T04:36:28;29.73;;;13.80;;
6149;SDS011;3106;42.670;23.318;2023-07-13T04:38:56;21.23;;;12.90;;
6149;SDS011;3106;42.670;23.318;2023-07-13T04:41:23;37.60;;;21.00;;
6149;SDS011;3106;42.670;23.318;2023-07-13T04:43:50;25.50;;;13.03;;
6149;SDS011;3106;42.670;23.318;2023-07-13T04:46:17;32.63;;;12.80;;
6149;SDS011;3106;42.670;23.318;2023-07-13T04:48:44;20.03;;;12.90;;
6149;SDS011;3106;42.670;23.318;2023-07-13T04:51:11;22.80;;;14.40;;
6149;SDS011;3106;42.670;23.318;2023-07-13T04:53:38;24.77;;;12.67;;
6149;SDS011;3106;42.670;23.318;2023-07-13T04:56:06;24.53;;;13.83;;
6149;SDS011;3106;42.670;23.318;2023-07-13T04:58:33;20.90;;;12.53;;
6149;SDS011;3106;42.670;23.318;2023-07-13T05:01:00;21.00;;;13.70;;
6149;SDS011;3106;42.670;23.318;2023-07-13T05:03:28;30.07;;;13.63;;
6149;SDS011;3106;42.670;23.318;2023-07-13T05:05:55;32.87;;;13.83;;
6149;SDS011;3106;42.670;23.318;2023-07-13T05:08:23;23.10;;;13.67;;
6149;SDS011;3106;42.670;23.318;2023-07-13T05:10:50;26.43;;;13.53;;
6149;SDS011;3106;42.670;23.318;2023-07-13T05:13:18;25.43;;;14.50;;
6149;SDS011;3106;42.670;23.318;2023-07-13T05:15:47;19.90;;;14.30;;
6149;SDS011;3106;42.670;23.318;2023-07-13T05:18:21;28.10;;;13.20;;
6149;SDS011;3106;42.670;23.318;2023-07-13T05:20:56;27.43;;;13.90;;
6149;SDS011;3106;42.670;23.318;2023-07-13T05:23:24;21.87;;;13.87;;
6149;SDS011;3106;42.670;23.318;2023-07-13T05:25:50;20.43;;;12.67;;
6149;SDS011;3106;42.670;23.318;2023-07-13T05:28:19;18.80;;;11.80;;
6149;SDS011;3106;42.670;23.318;2023-07-13T05:30:46;23.07;;;12.97;;
6149;SDS011;3106;42.670;23.318;2023-07-13T05:33:13;27.43;;;12.53;;
6149;SDS011;3106;42.670;23.318;2023-07-13T05:35:39;17.17;;;11.47;;
6149;SDS011;3106;42.670;23.318;2023-07-13T05:38:06;19.20;;;11.37;;
6149;SDS011;3106;42.670;23.318;2023-07-13T05:40:33;35.43;;;13.30;;
6149;SDS011;3106;42.670;23.318;2023-07-13T05:43:00;23.37;;;11.90;;
6149;SDS011;3106;42.670;23.318;2023-07-13T05:45:28;45.87;;;13.30;;
6149;SDS011;3106;42.670;23.318;2023-07-13T05:47:55;21.00;;;13.00;;
6149;SDS011;3106;42.670;23.318;2023-07-13T05:50:22;28.67;;;12.73;;
6149;SDS011;3106;42.670;23.318;2023-07-13T05:52:48;18.60;;;11.20;;
6149;SDS011;3106;42.670;23.318;2023-07-13T05:55:16;16.63;;;11.00;;
6149;SDS011;3106;42.670;23.318;2023-07-13T05:57:45;23.13;;;10.60;;
6149;SDS011;3106;42.670;23.318;2023-07-13T06:00:13;21.37;;;11.30;;
6149;SDS011;3106;42.670;23.318;2023-07-13T06:02:42;23.63;;;11.23;;
6149;SDS011;3106;42.670;23.318;2023-07-13T06:05:09;24.13;;;11.33;;
6149;SDS011;3106;42.670;23.318;2023-07-13T06:07:36;21.57;;;13.67;;
6149;SDS011;3106;42.670;23.318;2023-07-13T06:10:03;20.60;;;11.50;;
6149;SDS011;3106;42.670;23.318;2023-07-13T06:12:30;52.30;;;11.67;;
6149;SDS011;3106;42.670;23.318;2023-07-13T06:14:58;22.97;;;10.47;;
6149;SDS011;3106;42.670;23.318;2023-07-13T06:17:25;21.90;;;11.40;;
6149;SDS011;3106;42.670;23.318;2023-07-13T06:19:53;20.20;;;11.00;;
6149;SDS011;3106;42.670;23.318;2023-07-13T06:22:20;16.60;;;9.90;;
6149;SDS011;3106;42.670;23.318;2023-07-13T06:24:47;25.77;;;9.90;;
6149;SDS011;3106;42.670;23.318;2023-07-13T06:27:14;18.90;;;11.07;;
6149;SDS011;3106;42.670;23.318;2023-07-13T06:29:41;16.07;;;9.30;;
6149;SDS011;3106;42.670;23.318;2023-07-13T06:32:10;15.50;;;10.17;;
6149;SDS011;3106;42.670;23.318;2023-07-13T06:34:37;16.03;;;9.97;;
6149;SDS011;3106;42.670;23.318;2023-07-13T06:37:06;25.93;;;10.83;;
6149;SDS011;3106;42.670;23.318;2023-07-13T06:39:33;17.80;;;9.77;;
6149;SDS011;3106;42.670;23.318;2023-07-13T06:42:00;17.20;;;10.50;;
6149;SDS011;3106;42.670;23.318;2023-07-13T06:44:27;23.20;;;9.90;;
6149;SDS011;3106;42.670;23.318;2023-07-13T06:46:54;15.37;;;10.40;;
6149;SDS011;3106;42.670;23.318;2023-07-13T06:49:21;17.47;;;9.33;;
6149;SDS011;3106;42.670;23.318;2023-07-13T06:51:47;19.03;;;10.90;;
6149;SDS011;3106;42.670;23.318;2023-07-13T06:54:16;25.73;;;10.37;;
6149;SDS011;3106;42.670;23.318;2023-07-13T06:56:42;24.00;;;9.10;;
6149;SDS011;3106;42.670;23.318;2023-07-13T06:59:09;24.20;;;9.97;;
6149;SDS011;3106;42.670;23.318;2023-07-13T07:01:36;15.40;;;9.80;;
6149;SDS011;3106;42.670;23.318;2023-07-13T07:04:03;13.37;;;9.87;;
6149;SDS011;3106;42.670;23.318;2023-07-13T07:06:30;13.87;;;8.87;;
6149;SDS011;3106;42.670;23.318;2023-07-13T07:08:57;19.70;;;11.20;;
6149;SDS011;3106;42.670;23.318;2023-07-13T07:11:25;14.90;;;9.10;;
6149;SDS011;3106;42.670;23.318;2023-07-13T07:13:52;11.20;;;8.77;;
6149;SDS011;3106;42.670;23.318;2023-07-13T07:16:20;16.83;;;10.30;;
6149;SDS011;3106;42.670;23.318;2023-07-13T07:18:47;20.47;;;9.27;;
6149;SDS011;3106;42.670;23.318;2023-07-13T07:21:14;17.93;;;9.60;;
6149;SDS011;3106;42.670;23.318;2023-07-13T07:23:41;10.37;;;9.23;;
6149;SDS011;3106;42.670;23.318;2023-07-13T07:26:11;15.20;;;9.07;;
6149;SDS011;3106;42.670;23.318;2023-07-13T07:28:39;20.40;;;11.03;;
6149;SDS011;3106;42.670;23.318;2023-07-13T07:31:06;17.83;;;9.37;;
6149;SDS011;3106;42.670;23.318;2023-07-13T07:33:33;25.80;;;9.70;;
6149;SDS011;3106;42.670;23.318;2023-07-13T07:36:00;13.30;;;9.53;;
6149;SDS011;3106;42.670;23.318;2023-07-13T07:38:27;23.03;;;9.40;;
6149;SDS011;3106;42.670;23.318;2023-07-13T07:40:54;19.77;;;10.73;;
6149;SDS011;3106;42.670;23.318;2023-07-13T07:43:21;16.93;;;9.43;;
6149;SDS011;3106;42.670;23.318;2023-07-13T07:45:49;14.03;;;8.87;;
6149;SDS011;3106;42.670;23.318;2023-07-13T07:48:16;20.33;;;10.90;;
6149;SDS011;3106;42.670;23.318;2023-07-13T07:50:43;18.73;;;10.47;;
6149;SDS011;3106;42.670;23.318;2023-07-13T07:53:10;18.23;;;9.87;;
6149;SDS011;3106;42.670;23.318;2023-07-13T07:55:37;19.50;;;9.93;;
6149;SDS011;3106;42.670;23.318;2023-07-13T07:58:04;24.70;;;10.20;;
6149;SDS011;3106;42.670;23.318;2023-07-13T08:00:32;18.10;;;9.47;;
6149;SDS011;3106;42.670;23.318;2023-07-13T08:03:02;22.40;;;9.60;;
6149;SDS011;3106;42.670;23.318;2023-07-13T08:05:29;24.57;;;10.70;;
6149;SDS011;3106;42.670;23.318;2023-07-13T08:07:56;28.40;;;10.00;;
6149;SDS011;3106;42.670;23.318;2023-07-13T08:10:23;19.47;;;11.90;;
6149;SDS011;3106;42.670;23.318;2023-07-13T08:12:49;24.23;;;11.23;;
6149;SDS011;3106;42.670;23.318;2023-07-13T08:15:16;32.00;;;10.40;;
6149;SDS011;3106;42.670;23.318;2023-07-13T08:17:45;27.57;;;10.67;;
6149;SDS011;3106;42.670;23.318;2023-07-13T08:20:14;16.53;;;10.03;;
6149;SDS011;3106;42.670;23.318;2023-07-13T08:22:41;21.57;;;10.00;;
6149;SDS011;3106;42.670;23.318;2023-07-13T08:25:08;16.70;;;9.73;;
6149;SDS011;3106;42.670;23.318;2023-07-13T08:27:35;13.27;;;9.27;;
6149;SDS011;3106;42.670;23.318;2023-07-13T08:30:02;75.37;;;12.63;;
6149;SDS011;3106;42.670;23.318;2023-07-13T08:32:30;37.67;;;10.73;;
6149;SDS011;3106;42.670;23.318;2023-07-13T08:34:57;16.90;;;9.63;;
6149;SDS011;3106;42.670;23.318;2023-07-13T08:37:25;18.30;;;9.13;;
6149;SDS011;3106;42.670;23.318;2023-07-13T08:39:52;13.63;;;10.00;;
6149;SDS011;3106;42.670;23.318;2023-07-13T08:42:22;21.50;;;9.97;;
6149;SDS011;3106;42.670;23.318;2023-07-13T08:45:07;16.77;;;9.77;;
6149;SDS011;3106;42.670;23.318;2023-07-13T08:47:39;24.97;;;11.17;;
6149;SDS011;3106;42.670;23.318;2023-07-13T08:50:10;23.47;;;10.30;;
6149;SDS011;3106;42.670;23.318;2023-07-13T08:52:42;19.63;;;10.00;;
6149;SDS011;3106;42.670;23.318;2023-07-13T08:55:12;18.53;;;10.37;;
6149;SDS011;3106;42.670;23.318;2023-07-13T08:57:41;17.37;;;9.83;;
6149;SDS011;3106;42.670;23.318;2023-07-13T09:00:11;21.07;;;9.50;;
6149;SDS011;3106;42.670;23.318;2023-07-13T09:02:42;14.20;;;9.03;;
6149;SDS011;3106;42.670;23.318;2023-07-13T09:05:13;15.50;;;9.63;;
6149;SDS011;3106;42.670;23.318;2023-07-13T09:07:53;10.97;;;8.80;;
6149;SDS011;3106;42.670;23.318;2023-07-13T09:10:28;18.80;;;14.77;;
6149;SDS011;3106;42.670;23.318;2023-07-13T09:13:00;31.10;;;10.20;;
6149;SDS011;3106;42.670;23.318;2023-07-13T09:15:43;14.03;;;8.70;;
6149;SDS011;3106;42.670;23.318;2023-07-13T09:18:12;23.37;;;12.00;;
6149;SDS011;3106;42.670;23.318;2023-07-13T09:20:46;17.97;;;9.33;;
6149;SDS011;3106;42.670;23.318;2023-07-13T09:23:17;19.57;;;10.93;;
6149;SDS011;3106;42.670;23.318;2023-07-13T09:25:47;18.30;;;10.20;;
6149;SDS011;3106;42.670;23.318;2023-07-13T09:28:22;21.77;;;11.07;;
6149;SDS011;3106;42.670;23.318;2023-07-13T09:30:51;20.27;;;10.57;;
6149;SDS011;3106;42.670;23.318;2023-07-13T09:33:22;24.70;;;11.00;;
6149;SDS011;3106;42.670;23.318;2023-07-13T09:35:50;15.33;;;10.53;;
6149;SDS011;3106;42.670;23.318;2023-07-13T09:38:19;23.33;;;10.50;;
6149;SDS011;3106;42.670;23.318;2023-07-13T09:40:52;23.30;;;10.87;;
6149;SDS011;3106;42.670;23.318;2023-07-13T09:43:26;29.07;;;11.10;;
6149;SDS011;3106;42.670;23.318;2023-07-13T09:45:53;16.93;;;10.53;;
6149;SDS011;3106;42.670;23.318;2023-07-13T09:48:21;20.50;;;10.27;;
6149;SDS011;3106;42.670;23.318;2023-07-13T09:50:49;20.10;;;10.33;;
6149;SDS011;3106;42.670;23.318;2023-07-13T09:53:22;20.17;;;11.03;;
6149;SDS011;3106;42.670;23.318;2023-07-13T09:55:49;19.70;;;10.53;;
6149;SDS011;3106;42.670;23.318;2023-07-13T09:58:17;13.30;;;11.03;;
6149;SDS011;3106;42.670;23.318;2023-07-13T10:00:53;21.20;;;10.77;;
6149;SDS011;3106;42.670;23.318;2023-07-13T10:03:22;28.13;;;10.47;;
6149;SDS011;3106;42.670;23.318;2023-07-13T10:05:51;18.57;;;11.00;;
6149;SDS011;3106;42.670;23.318;2023-07-13T10:08:21;18.20;;;10.40;;
6149;SDS011;3106;42.670;23.318;2023-07-13T10:10:53;25.27;;;11.60;;
6149;SDS011;3106;42.670;23.318;2023-07-13T10:13:25;18.77;;;11.40;;
6149;SDS011;3106;42.670;23.318;2023-07-13T10:15:55;19.07;;;10.93;;
6149;SDS011;3106;42.670;23.318;2023-07-13T10:18:23;14.97;;;10.23;;
6149;SDS011;3106;42.670;23.318;2023-07-13T10:20:53;20.03;;;10.10;;
6149;SDS011;3106;42.670;23.318;2023-07-13T10:23:27;13.40;;;6.90;;
6149;SDS011;3106;42.670;23.318;2023-07-13T10:25:58;21.50;;;8.97;;
6149;SDS011;3106;42.670;23.318;2023-07-13T10:28:28;23.10;;;13.10;;
6149;SDS011;3106;42.670;23.318;2023-07-13T10:30:58;14.40;;;6.43;;
6149;SDS011;3106;42.670;23.318;2023-07-13T10:33:27;11.10;;;6.20;;
6149;SDS011;3106;42.670;23.318;2023-07-13T10:35:55;15.63;;;7.70;;
6149;SDS011;3106;42.670;23.318;2023-07-13T10:38:31;38.67;;;6.33;;
6149;SDS011;3106;42.670;23.318;2023-07-13T10:41:01;13.70;;;6.33;;
6149;SDS011;3106;42.670;23.318;2023-07-13T10:43:32;12.40;;;5.93;;
6149;SDS011;3106;42.670;23.318;2023-07-13T10:46:03;10.40;;;5.63;;
6149;SDS011;3106;42.670;23.318;2023-07-13T10:48:32;11.23;;;6.10;;
6149;SDS011;3106;42.670;23.318;2023-07-13T10:51:02;12.10;;;6.53;;
6149;SDS011;3106;42.670;23.318;2023-07-13T10:53:33;16.47;;;9.17;;
6149;SDS011;3106;42.670;23.318;2023-07-13T10:56:03;15.13;;;7.20;;
6149;SDS011;3106;42.670;23.318;2023-07-13T10:58:36;16.00;;;7.60;;
6149;SDS011;3106;42.670;23.318;2023-07-13T11:01:08;12.73;;;5.60;;
6149;SDS011;3106;42.670;23.318;2023-07-13T11:03:37;10.17;;;5.70;;
6149;SDS011;3106;42.670;23.318;2023-07-13T11:06:15;10.80;;;7.57;;
6149;SDS011;3106;42.670;23.318;2023-07-13T11:08:55;10.77;;;6.93;;
6149;SDS011;3106;42.670;23.318;2023-07-13T11:11:33;15.00;;;6.20;;
6149;SDS011;3106;42.670;23.318;2023-07-13T11:14:03;15.53;;;6.27;;
6149;SDS011;3106;42.670;23.318;2023-07-13T11:16:34;19.43;;;7.93;;
6149;SDS011;3106;42.670;23.318;2023-07-13T11:19:23;17.57;;;5.73;;
6149;SDS011;3106;42.670;23.318;2023-07-13T11:22:13;9.43;;;5.77;;
6149;SDS011;3106;42.670;23.318;2023-07-13T11:25:00;8.70;;;5.90;;
6149;SDS011;3106;42.670;23.318;2023-07-13T11:27:33;16.53;;;6.20;;
6149;SDS011;3106;42.670;23.318;2023-07-13T11:35:48;22.37;;;6.80;;
6149;SDS011;3106;42.670;23.318;2023-07-13T11:38:20;10.40;;;5.77;;
6149;SDS011;3106;42.670;23.318;2023-07-13T11:40:51;20.60;;;5.90;;
6149;SDS011;3106;42.670;23.318;2023-07-13T11:43:21;14.53;;;5.83;;
6149;SDS011;3106;42.670;23.318;2023-07-13T11:45:49;14.43;;;5.83;;
6149;SDS011;3106;42.670;23.318;2023-07-13T11:48:21;11.00;;;6.33;;
6149;SDS011;3106;42.670;23.318;2023-07-13T11:50:50;10.13;;;5.93;;
6149;SDS011;3106;42.670;23.318;2023-07-13T11:53:19;12.63;;;8.30;;
6149;SDS011;3106;42.670;23.318;2023-07-13T11:55:46;11.70;;;6.83;;
6149;SDS011;3106;42.670;23.318;2023-07-13T11:58:16;22.13;;;7.20;;
6149;SDS011;3106;42.670;23.318;2023-07-13T12:00:47;11.43;;;7.53;;
6149;SDS011;3106;42.670;23.318;2023-07-13T12:03:14;22.43;;;6.60;;
6149;SDS011;3106;42.670;23.318;2023-07-13T12:05:56;22.77;;;6.10;;
6149;SDS011;3106;42.670;23.318;2023-07-13T12:08:24;16.00;;;7.80;;
6149;SDS011;3106;42.670;23.318;2023-07-13T12:11:03;19.30;;;12.90;;
6149;SDS011;3106;42.670;23.318;2023-07-13T12:13:36;10.43;;;6.40;;
6149;SDS011;3106;42.670;23.318;2023-07-13T12:16:11;23.93;;;6.60;;
6149;SDS011;3106;42.670;23.318;2023-07-13T12:18:42;14.70;;;5.77;;
6149;SDS011;3106;42.670;23.318;2023-07-13T12:21:14;12.03;;;5.97;;
6149;SDS011;3106;42.670;23.318;2023-07-13T12:23:44;13.03;;;6.13;;
6149;SDS011;3106;42.670;23.318;2023-07-13T12:26:17;14.60;;;5.40;;
6149;SDS011;3106;42.670;23.318;2023-07-13T12:28:47;10.83;;;6.00;;
6149;SDS011;3106;42.670;23.318;2023-07-13T12:31:23;22.57;;;6.20;;
6149;SDS011;3106;42.670;23.318;2023-07-13T12:33:59;19.03;;;5.87;;
6149;SDS011;3106;42.670;23.318;2023-07-13T12:36:32;15.70;;;6.43;;
6149;SDS011;3106;42.670;23.318;2023-07-13T12:39:02;15.03;;;6.00;;
6149;SDS011;3106;42.670;23.318;2023-07-13T12:41:37;9.43;;;5.97;;
6149;SDS011;3106;42.670;23.318;2023-07-13T12:44:07;14.03;;;6.60;;
6149;SDS011;3106;42.670;23.318;2023-07-13T12:46:38;11.50;;;5.43;;
6149;SDS011;3106;42.670;23.318;2023-07-13T12:49:05;22.00;;;6.17;;
6149;SDS011;3106;42.670;23.318;2023-07-13T12:51:34;15.90;;;7.13;;
6149;SDS011;3106;42.670;23.318;2023-07-13T12:54:11;22.53;;;7.10;;
6149;SDS011;3106;42.670;23.318;2023-07-13T12:56:41;23.27;;;7.60;;
6149;SDS011;3106;42.670;23.318;2023-07-13T12:59:13;17.93;;;7.03;;
6149;SDS011;3106;42.670;23.318;2023-07-13T13:01:45;12.70;;;6.97;;
6149;SDS011;3106;42.670;23.318;2023-07-13T13:04:14;20.63;;;7.10;;
6149;SDS011;3106;42.670;23.318;2023-07-13T13:06:41;19.70;;;7.03;;
6149;SDS011;3106;42.670;23.318;2023-07-13T13:09:09;14.63;;;6.70;;
6149;SDS011;3106;42.670;23.318;2023-07-13T13:11:38;18.37;;;5.80;;
6149;SDS011;3106;42.670;23.318;2023-07-13T13:14:06;13.10;;;6.97;;
6149;SDS011;3106;42.670;23.318;2023-07-13T13:16:35;14.73;;;7.30;;
6149;SDS011;3106;42.670;23.318;2023-07-13T13:19:10;19.03;;;8.07;;
6149;SDS011;3106;42.670;23.318;2023-07-13T13:21:40;16.77;;;7.53;;
6149;SDS011;3106;42.670;23.318;2023-07-13T13:24:11;17.20;;;6.30;;
6149;SDS011;3106;42.670;23.318;2023-07-13T13:26:39;9.00;;;6.50;;
6149;SDS011;3106;42.670;23.318;2023-07-13T13:29:10;16.97;;;6.20;;
6149;SDS011;3106;42.670;23.318;2023-07-13T13:31:41;15.17;;;6.70;;
6149;SDS011;3106;42.670;23.318;2023-07-13T13:34:09;15.97;;;5.03;;
6149;SDS011;3106;42.670;23.318;2023-07-13T13:36:37;11.30;;;6.10;;
6149;SDS011;3106;42.670;23.318;2023-07-13T13:39:08;24.80;;;10.00;;
6149;SDS011;3106;42.670;23.318;2023-07-13T13:41:45;14.30;;;8.20;;
6149;SDS011;3106;42.670;23.318;2023-07-13T13:44:13;15.40;;;5.50;;
6149;SDS011;3106;42.670;23.318;2023-07-13T13:46:42;16.77;;;6.40;;
6149;SDS011;3106;42.670;23.318;2023-07-13T13:49:11;20.57;;;7.27;;
6149;SDS011;3106;42.670;23.318;2023-07-13T13:51:41;23.60;;;9.50;;
6149;SDS011;3106;42.670;23.318;2023-07-13T13:54:10;15.67;;;5.70;;
6149;SDS011;3106;42.670;23.318;2023-07-13T13:56:38;24.67;;;5.57;;
6149;SDS011;3106;42.670;23.318;2023-07-13T13:59:05;15.23;;;5.33;;
6149;SDS011;3106;42.670;23.318;2023-07-13T14:01:33;11.10;;;4.70;;
6149;SDS011;3106;42.670;23.318;2023-07-13T14:04:03;14.83;;;5.40;;
6149;SDS011;3106;42.670;23.318;2023-07-13T14:06:31;13.83;;;5.37;;
6149;SDS011;3106;42.670;23.318;2023-07-13T14:08:58;16.23;;;5.30;;
6149;SDS011;3106;42.670;23.318;2023-07-13T14:11:26;30.60;;;7.07;;
6149;SDS011;3106;42.670;23.318;2023-07-13T14:13:54;15.43;;;5.30;;
6149;SDS011;3106;42.670;23.318;2023-07-13T14:16:32;28.40;;;5.43;;
6149;SDS011;3106;42.670;23.318;2023-07-13T14:19:00;11.37;;;5.30;;
6149;SDS011;3106;42.670;23.318;2023-07-13T14:21:28;11.73;;;5.57;;
6149;SDS011;3106;42.670;23.318;2023-07-13T14:23:56;16.93;;;5.90;;
6149;SDS011;3106;42.670;23.318;2023-07-13T14:26:23;13.27;;;5.23;;
6149;SDS011;3106;42.670;23.318;2023-07-13T14:28:53;12.40;;;5.70;;
6149;SDS011;3106;42.670;23.318;2023-07-13T14:31:21;9.03;;;5.43;;
6149;SDS011;3106;42.670;23.318;2023-07-13T14:33:50;14.73;;;5.73;;
6149;SDS011;3106;42.670;23.318;2023-07-13T14:36:21;18.80;;;5.70;;
6149;SDS011;3106;42.670;23.318;2023-07-13T14:38:54;15.10;;;10.00;;
6149;SDS011;3106;42.670;23.318;2023-07-13T14:41:22;22.50;;;6.63;;
6149;SDS011;3106;42.670;23.318;2023-07-13T14:43:49;11.93;;;5.20;;
6149;SDS011;3106;42.670;23.318;2023-07-13T14:46:18;16.43;;;6.00;;
6149;SDS011;3106;42.670;23.318;2023-07-13T14:48:53;12.37;;;6.23;;
6149;SDS011;3106;42.670;23.318;2023-07-13T14:51:26;14.60;;;5.77;;
6149;SDS011;3106;42.670;23.318;2023-07-13T14:53:54;15.37;;;6.00;;
6149;SDS011;3106;42.670;23.318;2023-07-13T14:56:21;11.07;;;5.67;;
6149;SDS011;3106;42.670;23.318;2023-07-13T14:58:48;24.37;;;5.60;;
6149;SDS011;3106;42.670;23.318;2023-07-13T15:01:15;17.23;;;6.00;;
6149;SDS011;3106;42.670;23.318;2023-07-13T15:03:43;17.07;;;5.87;;
6149;SDS011;3106;42.670;23.318;2023-07-13T15:06:12;16.20;;;5.90;;
6149;SDS011;3106;42.670;23.318;2023-07-13T15:08:40;14.17;;;6.73;;
6149;SDS011;3106;42.670;23.318;2023-07-13T15:11:09;13.63;;;7.63;;
6149;SDS011;3106;42.670;23.318;2023-07-13T15:13:37;19.33;;;6.13;;
6149;SDS011;3106;42.670;23.318;2023-07-13T15:16:04;13.27;;;6.00;;
6149;SDS011;3106;42.670;23.318;2023-07-13T15:18:37;17.37;;;5.63;;
6149;SDS011;3106;42.670;23.318;2023-07-13T15:21:07;10.20;;;5.20;;
6149;SDS011;3106;42.670;23.318;2023-07-13T15:23:37;21.97;;;5.60;;
6149;SDS011;3106;42.670;23.318;2023-07-13T15:26:04;14.00;;;6.47;;
6149;SDS011;3106;42.670;23.318;2023-07-13T15:28:33;20.20;;;6.20;;
6149;SDS011;3106;42.670;23.318;2023-07-13T15:31:00;12.70;;;6.10;;
6149;SDS011;3106;42.670;23.318;2023-07-13T15:33:27;12.10;;;5.77;;
6149;SDS011;3106;42.670;23.318;2023-07-13T15:35:55;19.90;;;6.40;;
6149;SDS011;3106;42.670;23.318;2023-07-13T15:38:24;13.17;;;6.17;;
6149;SDS011;3106;42.670;23.318;2023-07-13T15:40:52;8.73;;;5.77;;
6149;SDS011;3106;42.670;23.318;2023-07-13T15:43:20;11.40;;;5.10;;
6149;SDS011;3106;42.670;23.318;2023-07-13T15:45:48;11.50;;;6.40;;
6149;SDS011;3106;42.670;23.318;2023-07-13T15:48:17;8.23;;;5.50;;
6149;SDS011;3106;42.670;23.318;2023-07-13T15:50:46;11.57;;;5.83;;
6149;SDS011;3106;42.670;23.318;2023-07-13T15:53:14;12.40;;;5.20;;
6149;SDS011;3106;42.670;23.318;2023-07-13T15:55:45;13.87;;;5.53;;
6149;SDS011;3106;42.670;23.318;2023-07-13T15:58:12;14.57;;;6.10;;
6149;SDS011;3106;42.670;23.318;2023-07-13T16:00:40;10.23;;;6.27;;
6149;SDS011;3106;42.670;23.318;2023-07-13T16:03:09;12.27;;;5.77;;
6149;SDS011;3106;42.670;23.318;2023-07-13T16:05:35;14.37;;;5.17;;
6149;SDS011;3106;42.670;23.318;2023-07-13T16:08:03;11.83;;;5.10;;
6149;SDS011;3106;42.670;23.318;2023-07-13T16:10:32;8.30;;;5.57;;
6149;SDS011;3106;42.670;23.318;2023-07-13T16:13:02;9.60;;;5.20;;
6149;SDS011;3106;42.670;23.318;2023-07-13T16:15:30;24.50;;;10.20;;
6149;SDS011;3106;42.670;23.318;2023-07-13T16:17:57;8.30;;;5.40;;
6149;SDS011;3106;42.670;23.318;2023-07-13T16:20:25;16.47;;;5.40;;
6149;SDS011;3106;42.670;23.318;2023-07-13T16:22:53;15.37;;;6.90;;
6149;SDS011;3106;42.670;23.318;2023-07-13T16:25:22;14.47;;;6.43;;
6149;SDS011;3106;42.670;23.318;2023-07-13T16:27:51;19.97;;;6.80;;
6149;SDS011;3106;42.670;23.318;2023-07-13T16:30:19;9.17;;;5.20;;
6149;SDS011;3106;42.670;23.318;2023-07-13T16:32:49;11.33;;;5.60;;
6149;SDS011;3106;42.670;23.318;2023-07-13T16:35:17;15.37;;;6.07;;
6149;SDS011;3106;42.670;23.318;2023-07-13T16:37:46;13.40;;;5.83;;
6149;SDS011;3106;42.670;23.318;2023-07-13T16:40:23;19.93;;;6.70;;
6149;SDS011;3106;42.670;23.318;2023-07-13T16:42:52;14.33;;;6.03;;
6149;SDS011;3106;42.670;23.318;2023-07-13T16:45:20;18.00;;;6.40;;
6149;SDS011;3106;42.670;23.318;2023-07-13T16:47:49;8.37;;;5.87;;
6149;SDS011;3106;42.670;23.318;2023-07-13T16:50:17;13.97;;;6.80;;
6149;SDS011;3106;42.670;23.318;2023-07-13T16:52:47;7.83;;;5.40;;
6149;SDS011;3106;42.670;23.318;2023-07-13T16:55:16;9.97;;;5.23;;
6149;SDS011;3106;42.670;23.318;2023-07-13T16:57:47;19.37;;;6.97;;
6149;SDS011;3106;42.670;23.318;2023-07-13T17:00:18;12.17;;;6.10;;
6149;SDS011;3106;42.670;23.318;2023-07-13T17:02:53;24.33;;;6.70;;
6149;SDS011;3106;42.670;23.318;2023-07-13T17:05:26;22.37;;;6.37;;
6149;SDS011;3106;42.670;23.318;2023-07-13T17:07:55;11.23;;;6.53;;
6149;SDS011;3106;42.670;23.318;2023-07-13T17:10:23;10.60;;;6.67;;
6149;SDS011;3106;42.670;23.318;2023-07-13T17:12:51;12.60;;;7.33;;
6149;SDS011;3106;42.670;23.318;2023-07-13T17:15:19;17.93;;;6.77;;
6149;SDS011;3106;42.670;23.318;2023-07-13T17:17:47;20.90;;;6.07;;
6149;SDS011;3106;42.670;23.318;2023-07-13T17:20:17;21.67;;;6.00;;
6149;SDS011;3106;42.670;23.318;2023-07-13T17:22:49;20.90;;;6.63;;
6149;SDS011;3106;42.670;23.318;2023-07-13T17:25:19;9.83;;;6.20;;
6149;SDS011;3106;42.670;23.318;2023-07-13T17:27:47;13.53;;;6.30;;
6149;SDS011;3106;42.670;23.318;2023-07-13T17:30:16;12.50;;;6.00;;
6149;SDS011;3106;42.670;23.318;2023-07-13T17:32:44;15.30;;;6.60;;
6149;SDS011;3106;42.670;23.318;2023-07-13T17:35:17;14.63;;;6.97;;
6149;SDS011;3106;42.670;23.318;2023-07-13T17:37:49;12.10;;;6.50;;
6149;SDS011;3106;42.670;23.318;2023-07-13T17:40:19;16.40;;;6.20;;
6149;SDS011;3106;42.670;23.318;2023-07-13T17:42:47;15.20;;;6.60;;
6149;SDS011;3106;42.670;23.318;2023-07-13T17:45:19;9.20;;;6.50;;
6149;SDS011;3106;42.670;23.318;2023-07-13T17:47:47;12.23;;;6.83;;
6149;SDS011;3106;42.670;23.318;2023-07-13T17:50:21;13.90;;;7.30;;
6149;SDS011;3106;42.670;23.318;2023-07-13T17:52:57;21.47;;;10.30;;
6149;SDS011;3106;42.670;23.318;2023-07-13T17:55:26;16.53;;;8.13;;
6149;SDS011;3106;42.670;23.318;2023-07-13T17:57:52;16.93;;;7.73;;
6149;SDS011;3106;42.670;23.318;2023-07-13T18:00:20;22.50;;;7.60;;
6149;SDS011;3106;42.670;23.318;2023-07-13T18:02:54;14.83;;;7.90;;
6149;SDS011;3106;42.670;23.318;2023-07-13T18:05:25;16.97;;;6.77;;
6149;SDS011;3106;42.670;23.318;2023-07-13T18:07:52;25.07;;;8.33;;
6149;SDS011;3106;42.670;23.318;2023-07-13T18:10:20;20.57;;;8.50;;
6149;SDS011;3106;42.670;23.318;2023-07-13T18:12:50;19.47;;;7.33;;
6149;SDS011;3106;42.670;23.318;2023-07-13T18:15:18;27.10;;;6.97;;
6149;SDS011;3106;42.670;23.318;2023-07-13T18:17:46;18.37;;;6.93;;
6149;SDS011;3106;42.670;23.318;2023-07-13T18:20:15;14.17;;;6.50;;
6149;SDS011;3106;42.670;23.318;2023-07-13T18:22:43;19.87;;;6.60;;
6149;SDS011;3106;42.670;23.318;2023-07-13T18:25:13;15.30;;;7.30;;
6149;SDS011;3106;42.670;23.318;2023-07-13T18:27:41;18.03;;;7.67;;
6149;SDS011;3106;42.670;23.318;2023-07-13T18:30:10;15.50;;;7.50;;
6149;SDS011;3106;42.670;23.318;2023-07-13T18:32:39;21.03;;;7.00;;